カンクン の空港の天気 - METARとTAF

カンクン国際空港 ( MMUN / CUN ) - メキシコ キンタナ・ロー州カンクン
飛行場実況気象(Metar)
観測時間01/21 11:43 CST (01/21 17:43 UTC)
風向・風速東 4m/s
視程10km以上
天気現象
全天の4割程度の雲 雲底高度 610m
全天の8割程度の雲 雲底高度 2440m
気温28℃
湿度70%
気圧1017.1hPa
METARMMUN 211743Z 08008KT 7SM SCT020 BKN080 28/22 A3002 RMK SLP171 58010 982 8/130 CI
過去の天気等 Google飛行場航空写真 Wunderground天気予報

過去48時間のMETAR

飛行場予報(TAF)
発表時間: 1/21 11:01 CST (1/21 17:01 UTC)
予報対象時間: 21日12時 CST ~ 22日18時 CST
風向・風速東北東 8m/s
視程10km以上
全天の8割程度の雲 雲底高度 610m
全天を覆う雲 雲底高度 2,130m
21日16時 CST ~ 21日20時 CST に一時的に
視程8,050m
天気現象
21日22時 CST から
風向・風速東 5m/s
視程10km以上
全天の4割程度の雲 雲底高度 460m
全天の8割程度の雲 雲底高度 2,440m
22日4時 CST から
風向・風速東南東 5m/s
視程10km以上
全天を覆う雲 雲底高度 300m
TAF MMUN 211701Z 2118/2224 07015KT P6SM BKN020 OVC070 TX28/2120Z TN24/2212Z
TEMPO 2122/2202 5SM RA
FM220400 10010KT P6SM SCT015 BKN080
FM221000 12010KT P6SM OVC010 F221700 14001KT P6SM SCT010 SCT080 BKN240